2022年5月23日

时间 代码 天气 温度 能见度 乌云 METAR/SPECI
10:00
V
17 °C 32 km 26.000 ft 290°   290° 8 kt METAR CYEG 231600Z 29008KT 20SM BKN260 17/M02 A2991 RMK CI6 CONTRAILS SLP141 DENSITY ALT 3200FT
09:00
V
14 °C 32 km 26.000 ft 300°   300° 8 kt METAR CYEG 231500Z 30008KT 270V340 20SM BKN260 14/M03 A2992 RMK CI6 CONTRAILS SLP141 DENSITY ALT 2800FT
08:00
V
11 °C 32 km 26.000 ft 270°   270° 7 kt METAR CYEG 231400Z 27007KT 20SM BKN260 11/M03 A2993 RMK CI7 CONTRAILS SLP145 DENSITY ALT 2500FT
07:00
V
8 °C 32 km 25.000 ft 230°   230° 3 kt METAR CYEG 231300Z 23003KT 170V250 20SM BKN250 08/M02 A2993 RMK CI7 SLP145
06:00
V
5 °C 32 km - 200°   200° 5 kt METAR CYEG 231200Z 20005KT 20SM SCT250 05/M03 A2992 RMK CI3 SLP147
05:00
V
5 °C 32 km - 230°   230° 4 kt METAR CYEG 231100Z 23004KT 20SM FEW250 05/M03 A2992 RMK CI2 SLP146
04:00
V
4 °C 32 km - 210°   210° 6 kt METAR CYEG 231000Z 21006KT 20SM FEW110 FEW250 04/M03 A2993 RMK AC1CI2 AC TR SLP148
03:00
V
3 °C 32 km - 210°   210° 7 kt METAR CYEG 230900Z 21007KT 20SM FEW250 03/M03 A2993 RMK CI1 CI TR SLP153
02:00
V
5 °C 32 km - 190°   190° 7 kt METAR CYEG 230800Z 19007KT 20SM FEW110 FEW250 05/M02 A2994 RMK AC1CI1 AC TR SLP153
01:00
V
5 °C 32 km - 200°   200° 7 kt METAR CYEG 230700Z 20007KT 20SM FEW110 FEW250 05/M02 A2995 RMK AC1CI1 AC TR CI TR SLP156
00:00
V
7 °C 32 km - 190°   190° 7 kt METAR CYEG 230600Z 19007KT 20SM FEW110 07/M01 A2996 RMK AC1 SLP157

2022年5月22日

时间 代码 天气 温度 能见度 乌云 METAR/SPECI
23:00
V
10 °C 32 km 11.000 ft 190°   190° 5 kt METAR CYEG 230500Z 19005KT 20SM BKN110 10/M02 A2996 RMK AC6 SLP158
22:00
V
8 °C 32 km - 190°   190° 4 kt METAR CYEG 230400Z 19004KT 20SM FEW100 FEW130 08/M03 A2996 RMK AC2AC1 AC TR VIRGA E QUAD SLP161
21:00
V
15 °C 32 km 10.000 ft 270°   270° 3 kt METAR CYEG 230300Z 27003KT 260V340 20SM BKN100 BKN130 15/M03 A2996 RMK AC5AC1 AC TR VIRGA PTCHS SLP156 DENSITY ALT 2900FT
20:00
V
16 °C 32 km 10.000 ft 360°   360° 9 kt METAR CYEG 230200Z 36009KT 20SM BKN100 BKN130 BKN250 16/M04 A2996 RMK CU6AC1CI1 AC TR TCU ASOCTD VIRGA PTCHS SLP156 DENSITY ALT 3100FT
19:47
V
17 °C 32 km 10.000 ft 350°   350° 10 16 kt METAR CYEG 230147Z CCA 35010G16KT 20SM BKN100 BKN130 BKN250 17/M04 A2996 RMK CU6AC1CI1 AC TR WSHFT 0132 TCU ASOCTD VIRGA PTCHS SLP158 DENSITY ALT 3100FT
19:00
V
18 °C 32 km 10.000 ft 290°   290° 11 17 kt METAR CYEG 230100Z 29011G17KT 20SM BKN100 BKN140 BKN250 18/M05 A2995 RMK CU5AC1CI1 TCU ASOCTD VIRGA PTCHS SLP158 DENSITY ALT 3200FT
18:00
V
18 °C 32 km 10.000 ft 270°   270° 11 21 kt METAR CYEG 230000Z 27011G21KT 20SM BKN100 BKN140 BKN250 18/M05 A2996 RMK CU5AC1CI1 TCU ASOCTD VIRGA PTCHS SLP165 DENSITY ALT 3200FT
17:00
V
19 °C 32 km 10.000 ft 280°   280° 16 kt METAR CYEG 222300Z 28016KT 250V310 20SM BKN100 BKN140 BKN250 19/M06 A2997 RMK CU5AC1CI2 AC TR TCU ASOCTD VIRGA PTCHS SLP166 DENSITY ALT 3400FT
16:00
V
18 °C 32 km 25.000 ft 290°   290° 12 18 kt METAR CYEG 222200Z 29012G18KT 20SM SCT100 BKN250 18/M06 A2998 RMK CU4CI3 VIRGA PTCHS SLP168 DENSITY ALT 3300FT
15:00
V
17 °C 32 km 10.000 ft 310°   310° 12 19 kt METAR CYEG 222100Z 31012G19KT 290V350 20SM BKN100 BKN250 17/M07 A2999 RMK CU6CI1 VIRGA PTCHS SLP173 DENSITY ALT 3100FT
14:00
V
18 °C 32 km 10.000 ft 310°   310° 13 19 kt METAR CYEG 222000Z 31013G19KT 20SM BKN100 BKN120 BKN250 18/M08 A3000 RMK CU6AC1CI1 AC TR SLP175 DENSITY ALT 3200FT
13:00
V
18 °C 32 km 11.000 ft 260°   260° 11 20 kt METAR CYEG 221900Z 26011G20KT 240V330 20SM SCT090 BKN110 BKN240 18/M06 A3001 RMK CU4AC1CI1 SLP180 DENSITY ALT 3200FT
12:00
V
17 °C 32 km 24.000 ft 290°   290° 13 20 kt METAR CYEG 221800Z 29013G20KT 20SM FEW090 FEW110 BKN240 17/M06 A3004 RMK CU1AC1CI5 AC TR SLP188 DENSITY ALT 3000FT
11:00
V
16 °C 32 km 24.000 ft 270°   270° 13 18 kt METAR CYEG 221700Z 27013G18KT 20SM FEW085 FEW110 BKN240 16/M05 A3005 RMK CU1AC1CI6 CU TR ACC ASOCTD SLP191 DENSITY ALT 2900FT
10:00
V
14 °C 32 km 25.000 ft 250°   250° 12 kt METAR CYEG 221600Z 25012KT 20SM FEW110 BKN250 14/M01 A3006 RMK AC1CI6 ACC ASOCTD N SLP194 DENSITY ALT 2700FT
09:00
V
11 °C 32 km 25.000 ft 250°   250° 10 kt METAR CYEG 221500Z 25010KT 20SM FEW120 BKN250 11/M02 A3008 RMK ACC1CI5 ACC NW-N SLP201
08:00
V
9 °C 32 km 25.000 ft 240°   240° 10 kt METAR CYEG 221400Z 24010KT 20SM FEW120 BKN250 09/M02 A3009 RMK AC1CI7 AC TR CONTRAILS SLP204
07:00
V
4 °C 32 km 25.000 ft 190°   190° 6 kt METAR CYEG 221300Z 19006KT 20SM FEW100 BKN250 04/M02 A3009 RMK AC1CI7 AC TR SLP209
06:00
V
0 °C 32 km - 190°   190° 7 kt METAR CYEG 221200Z 19007KT 20SM FEW100 SCT250 M00/M04 A3009 RMK AC1CI2 SLP214
05:00
V
-1 °C 32 km - 180°   180° 7 kt METAR CYEG 221100Z 18007KT 20SM FEW100 FEW250 M01/M04 A3010 RMK AC1CI1 CI TR SLP217
04:00
V
2 °C 32 km - 200°   200° 5 kt METAR CYEG 221000Z 20005KT 20SM FEW100 FEW250 02/M04 A3011 RMK AC1CI1 AC TR CI TR SLP220
03:00
V
1 °C 32 km - 190°   190° 8 kt METAR CYEG 220900Z 19008KT 20SM FEW100 01/M04 A3012 RMK AC1 AC TR SLP222
02:00
V
2 °C 32 km - 190°   190° 9 kt METAR CYEG 220800Z 19009KT 20SM SKC 02/M04 A3013 RMK SLP224
01:00
V
2 °C 32 km - 190°   190° 8 kt METAR CYEG 220700Z 19008KT 20SM SKC 02/M04 A3014 RMK SLP228
00:00
V
4 °C 32 km - 190°   190° 7 kt METAR CYEG 220600Z 19007KT 20SM FEW100 04/M04 A3015 RMK AC1 AC TR SLP231

2022年5月21日

时间 代码 天气 温度 能见度 乌云 METAR/SPECI
23:00
V
5 °C 32 km - 190°   190° 8 kt METAR CYEG 220500Z 19008KT 20SM FEW100 FEW250 05/M05 A3016 RMK AC1CI1 AC TR CI TR SLP234
22:00
V
9 °C 32 km - 200°   200° 5 kt METAR CYEG 220400Z 20005KT 20SM FEW095 FEW250 09/M06 A3016 RMK AC1CI1 AC TR CI TR SLP235
21:00
V
12 °C 32 km - 250°   250° 4 kt METAR CYEG 220300Z 25004KT 220V300 20SM FEW095 FEW250 12/M08 A3016 RMK AC1CI1 AC TR CI TR SLP233
20:00
V
14 °C 32 km - Var   Var 2 kt METAR CYEG 220200Z VRB02KT 20SM FEW095 FEW250 14/M07 A3017 RMK CU1CI1 SLP236 DENSITY ALT 2500FT
19:00
V
14 °C 32 km - Var   Var 2 kt METAR CYEG 220100Z VRB02KT 20SM FEW095 SCT250 14/M09 A3017 RMK CU2CI1 CONTRAILS SLP240 DENSITY ALT 2600FT
18:00
V
14 °C 32 km 25.000 ft 300°   300° 7 kt METAR CYEG 220000Z 30007KT 20SM SCT095 BKN250 14/M08 A3019 RMK CU4CI1 SLP248 DENSITY ALT 2600FT
17:00
V
15 °C 32 km 25.000 ft 250°   250° 9 kt METAR CYEG 212300Z 25009KT 200V320 20SM SCT095 BKN250 15/M08 A3020 RMK CU4CI1 SLP253 DENSITY ALT 2600FT
16:00
V
13 °C 32 km - Var   Var 2 kt METAR CYEG 212200Z VRB02KT 20SM FEW090 SCT250 13/M09 A3022 RMK CU2CI1 SLP260 DENSITY ALT 2400FT
15:00
V
14 °C 32 km - 100°   100° 6 kt METAR CYEG 212100Z 10006KT 070V160 20SM FEW090 SCT250 14/M09 A3023 RMK CU1CI2 SLP260 DENSITY ALT 2500FT
14:00
V
14 °C 32 km - Var   Var 5 kt METAR CYEG 212000Z VRB05KT 20SM FEW090 SCT250 14/M09 A3024 RMK CU1CI2 SLP266 DENSITY ALT 2400FT
13:00
V
12 °C 32 km - Var   Var 7 kt METAR CYEG 211900Z VRB07KT 20SM FEW085 SCT250 12/M09 A3025 RMK CU1CI2 SLP272
12:00
V
11 °C 32 km - Var   Var 2 kt METAR CYEG 211800Z VRB02KT 20SM FEW080 SCT250 11/M09 A3026 RMK CU1CI3 CONTRAILS SLP273
11:00
V
10 °C 32 km 25.000 ft 320°   320° 3 kt METAR CYEG 211700Z 32003KT 270V020 20SM FEW065 BKN250 10/M05 A3027 RMK CU1CI4 CONTRAILS SLP275
10:00
V
9 °C 32 km 25.000 ft 350°   350° 3 kt METAR CYEG 211600Z 35003KT 200V010 20SM FEW045 BKN250 09/M03 A3029 RMK CU1CI7 CU TR CONTRAILS SLP280
09:00
V
6 °C 32 km 25.000 ft 300°   300° 4 kt METAR CYEG 211500Z 30004KT 20SM FEW035 FEW150 FEW220 BKN250 06/M02 A3030 RMK CU1AC1CI2CI5 CU TR AC TR CONTRAILS SLP284
较旧的数据

下载我们的应用程序

在您的手机和平板电脑上轻松访问所有航空天气。
有许多网站上没有的功能,如离线支持和个人机场列表。

Studio Eveline

Benalmádena
España

我们和第三方通过cookies跟踪您在我们网站上的上网行为。如果您继续,我们认为您同意我们的cookie政策。 了解更多